createdAt,value
2019-05-12T00:00:39.235Z,51.90
2019-05-12T00:03:08.524Z,51.90
2019-05-12T00:05:38.309Z,51.80
2019-05-12T00:08:08.293Z,51.80
2019-05-12T00:10:38.749Z,51.80
2019-05-12T00:13:08.397Z,51.50
2019-05-12T00:15:38.437Z,51.80
2019-05-12T00:18:09.235Z,51.80
2019-05-12T00:20:38.625Z,51.60
2019-05-12T00:23:23.124Z,51.50
2019-05-12T00:25:40.201Z,51.40
2019-05-12T00:28:08.839Z,51.60
2019-05-12T00:30:41.707Z,51.60
2019-05-12T00:33:10.372Z,51.50
2019-05-12T00:35:39.177Z,51.50
2019-05-12T00:38:09.099Z,51.70
2019-05-12T00:40:39.196Z,51.60
2019-05-12T00:43:08.973Z,51.90
2019-05-12T00:45:38.886Z,52.20
2019-05-12T00:48:09.188Z,52.60
2019-05-12T00:50:38.197Z,52.80
2019-05-12T00:53:09.009Z,54.10
2019-05-12T00:55:38.109Z,54.10
2019-05-12T00:58:08.485Z,55.10
2019-05-12T01:00:40.697Z,54.70
2019-05-12T01:03:08.695Z,55.10
2019-05-12T01:05:38.359Z,55.50
2019-05-12T01:08:09.154Z,55.60
2019-05-12T01:10:38.990Z,55.90
2019-05-12T01:15:42.905Z,56.70
2019-05-12T01:18:11.588Z,56.70
2019-05-12T01:20:41.102Z,56.90
2019-05-12T01:23:09.392Z,57.10
2019-05-12T01:25:39.586Z,57.00
2019-05-12T01:28:10.333Z,57.50
2019-05-12T01:30:39.335Z,57.70
2019-05-12T01:33:08.886Z,57.80
2019-05-12T01:35:39.383Z,58.10
2019-05-12T01:38:08.562Z,58.10
2019-05-12T01:40:39.357Z,58.20
2019-05-12T01:43:08.866Z,58.30
2019-05-12T01:45:38.306Z,58.30
2019-05-12T01:48:08.717Z,58.50
2019-05-12T01:50:38.672Z,58.60
2019-05-12T01:53:08.364Z,58.70
2019-05-12T01:55:38.609Z,58.80
2019-05-12T01:58:08.464Z,58.90
2019-05-12T02:00:38.728Z,59.00
2019-05-12T02:03:08.979Z,59.00
2019-05-12T02:05:42.210Z,58.80
2019-05-12T02:08:15.795Z,59.10
2019-05-12T02:10:44.427Z,59.20
2019-05-12T02:13:13.396Z,59.30
2019-05-12T02:15:42.413Z,59.40
2019-05-12T02:18:11.004Z,59.50
2019-05-12T02:20:39.798Z,59.80
2019-05-12T02:23:09.972Z,59.90
2019-05-12T02:25:39.031Z,60.10
2019-05-12T02:28:09.129Z,60.10
2019-05-12T02:30:41.800Z,60.00
2019-05-12T02:33:10.910Z,60.10
2019-05-12T02:35:39.903Z,60.30
2019-05-12T02:38:08.544Z,60.60
2019-05-12T02:40:37.556Z,60.90
2019-05-12T02:43:06.123Z,61.20
2019-05-12T02:45:35.963Z,61.40
2019-05-12T02:48:05.389Z,61.50
2019-05-12T02:50:36.249Z,61.60
2019-05-12T02:53:06.047Z,61.30
2019-05-12T02:55:35.734Z,61.30
2019-05-12T02:58:05.907Z,61.60
2019-05-12T03:00:36.226Z,61.70
2019-05-12T03:03:08.314Z,61.70
2019-05-12T03:05:38.650Z,62.10
2019-05-12T03:08:07.060Z,62.00
2019-05-12T03:10:36.000Z,62.60
2019-05-12T03:13:05.071Z,63.00
2019-05-12T03:15:36.357Z,63.30
2019-05-12T03:18:06.164Z,63.30
2019-05-12T03:20:35.912Z,63.50
2019-05-12T03:23:06.216Z,63.60
2019-05-12T03:25:36.451Z,63.60
2019-05-12T03:28:08.615Z,63.70
2019-05-12T03:30:39.318Z,63.70
2019-05-12T03:33:11.580Z,63.70
2019-05-12T03:35:43.457Z,63.90
2019-05-12T03:38:09.767Z,64.30
2019-05-12T03:40:39.174Z,65.30
2019-05-12T03:43:07.579Z,64.90
2019-05-12T03:45:36.730Z,64.80
2019-05-12T03:48:06.515Z,64.90
2019-05-12T03:50:36.280Z,64.30
2019-05-12T03:53:10.343Z,64.90
2019-05-12T03:55:41.875Z,64.70
2019-05-12T03:58:06.558Z,64.50
2019-05-12T04:00:36.318Z,64.70
2019-05-12T04:03:05.372Z,64.80
2019-05-12T04:05:35.116Z,64.70
2019-05-12T04:08:06.654Z,64.90
2019-05-12T04:10:36.329Z,64.80
2019-05-12T04:13:05.560Z,64.70
2019-05-12T04:15:35.614Z,64.90
2019-05-12T04:18:06.148Z,64.70
2019-05-12T04:20:35.969Z,65.00
2019-05-12T04:23:06.381Z,65.90
2019-05-12T04:25:50.961Z,65.70
2019-05-12T04:28:06.811Z,66.00
2019-05-12T04:30:36.065Z,66.10
2019-05-12T04:33:05.336Z,66.10
2019-05-12T04:35:36.168Z,66.60
2019-05-12T04:38:05.507Z,66.60
2019-05-12T04:40:36.022Z,66.40
2019-05-12T04:43:06.144Z,66.60
2019-05-12T04:45:35.351Z,66.60
2019-05-12T04:48:05.152Z,67.00
2019-05-12T04:50:35.767Z,67.40
2019-05-12T04:53:06.291Z,67.40
2019-05-12T04:55:36.041Z,67.50
2019-05-12T04:58:04.830Z,67.60
2019-05-12T05:00:34.926Z,67.50
2019-05-12T05:03:06.125Z,67.80
2019-05-12T05:05:35.762Z,66.70
2019-05-12T05:08:05.397Z,66.50
2019-05-12T05:10:34.578Z,66.30
2019-05-12T05:13:05.535Z,66.10
2019-05-12T05:15:35.237Z,65.80
2019-05-12T05:18:06.282Z,65.80
2019-05-12T05:20:34.942Z,65.70
2019-05-12T05:23:04.668Z,65.60
2019-05-12T05:25:34.354Z,65.70
2019-05-12T05:28:05.350Z,65.30
2019-05-12T05:30:34.535Z,65.00
2019-05-12T05:33:04.937Z,64.80
2019-05-12T05:35:39.391Z,64.70
2019-05-12T05:38:10.806Z,65.50
2019-05-12T05:40:37.629Z,64.50
2019-05-12T05:43:18.199Z,64.60
2019-05-12T05:45:36.718Z,64.90
2019-05-12T05:48:09.856Z,65.30
2019-05-12T05:50:35.716Z,64.30
2019-05-12T05:53:09.205Z,63.80
2019-05-12T05:55:35.288Z,63.90
2019-05-12T05:58:10.131Z,64.20
2019-05-12T06:00:39.039Z,64.20
2019-05-12T06:03:05.722Z,64.00
2019-05-12T06:05:38.474Z,63.90
2019-05-12T06:08:09.506Z,63.70
2019-05-12T06:10:40.335Z,63.90
2019-05-12T06:13:07.472Z,64.20
2019-05-12T06:15:40.554Z,64.10
2019-05-12T06:18:07.635Z,64.00
2019-05-12T06:20:38.109Z,64.20
2019-05-12T06:23:06.398Z,63.90
2019-05-12T06:25:45.552Z,64.70
2019-05-12T06:28:08.900Z,64.20
2019-05-12T06:30:44.449Z,63.80
2019-05-12T06:33:07.069Z,63.70
2019-05-12T06:35:42.142Z,63.10
2019-05-12T06:38:06.670Z,63.20
2019-05-12T06:40:41.219Z,63.10
2019-05-12T06:43:08.011Z,63.30
2019-05-12T06:45:41.848Z,63.40
2019-05-12T06:48:06.958Z,63.30
2019-05-12T06:50:39.119Z,63.40
2019-05-12T06:53:06.126Z,63.20
2019-05-12T06:55:39.032Z,62.90
2019-05-12T06:58:05.421Z,62.90
2019-05-12T07:00:35.327Z,62.20
2019-05-12T07:03:04.362Z,62.00
2019-05-12T07:05:38.238Z,61.70
2019-05-12T07:08:04.769Z,61.50
2019-05-12T07:10:39.456Z,60.60
2019-05-12T07:13:05.513Z,60.40
2019-05-12T07:15:35.768Z,60.00
2019-05-12T07:18:10.062Z,59.60
2019-05-12T07:20:39.748Z,59.70
2019-05-12T07:23:08.361Z,59.40
2019-05-12T07:25:37.090Z,59.20
2019-05-12T07:28:07.952Z,59.30
2019-05-12T07:30:36.198Z,59.00
2019-05-12T07:33:05.028Z,59.10
2019-05-12T07:35:34.107Z,58.50
2019-05-12T07:38:04.557Z,58.20
2019-05-12T07:40:37.955Z,58.10
2019-05-12T07:43:16.267Z,58.20
2019-05-12T07:45:45.329Z,58.20
2019-05-12T07:48:13.967Z,58.00
2019-05-12T07:50:43.351Z,57.20
2019-05-12T07:53:14.275Z,57.40
2019-05-12T07:55:47.438Z,57.20
2019-05-12T07:58:17.757Z,57.00
2019-05-12T08:00:44.304Z,56.90
2019-05-12T08:03:19.052Z,56.40
2019-05-12T08:05:43.999Z,57.30
2019-05-12T08:08:14.534Z,57.10
2019-05-12T08:10:44.344Z,57.00
2019-05-12T08:13:14.835Z,55.80
2019-05-12T08:15:45.847Z,56.00
2019-05-12T08:18:14.157Z,56.00
2019-05-12T08:20:43.609Z,55.20
2019-05-12T08:23:14.176Z,55.60
2019-05-12T08:25:43.666Z,54.70
2019-05-12T08:28:18.369Z,54.40
2019-05-12T08:30:50.268Z,54.80
2019-05-12T08:33:15.473Z,55.30
2019-05-12T08:35:44.102Z,54.90
2019-05-12T08:38:14.462Z,54.20
2019-05-12T08:40:50.703Z,54.30
2019-05-12T08:43:17.266Z,54.30
2019-05-12T08:45:45.889Z,53.90
2019-05-12T08:48:21.254Z,53.70
2019-05-12T08:50:46.193Z,54.00
2019-05-12T08:53:20.716Z,54.10
2019-05-12T08:55:46.016Z,54.30
2019-05-12T08:58:29.806Z,53.50
2019-05-12T09:00:50.148Z,53.10
2019-05-12T09:03:20.553Z,52.80
2019-05-12T09:05:48.449Z,52.60
2019-05-12T09:08:17.300Z,51.40
2019-05-12T09:10:46.132Z,51.00
2019-05-12T09:13:14.612Z,50.70
2019-05-12T09:15:43.902Z,49.90
2019-05-12T09:18:14.498Z,49.50
2019-05-12T09:20:48.756Z,48.30
2019-05-12T09:23:13.794Z,47.90
2019-05-12T09:25:45.239Z,45.40
2019-05-12T09:28:13.790Z,46.20
2019-05-12T09:30:45.846Z,44.30
2019-05-12T09:33:14.090Z,43.70
2019-05-12T09:35:43.747Z,43.90
2019-05-12T09:38:21.458Z,42.80
2019-05-12T09:40:43.852Z,43.20
2019-05-12T09:43:13.753Z,42.00
2019-05-12T09:45:52.057Z,42.50
2019-05-12T09:48:14.990Z,42.10
2019-05-12T09:50:46.278Z,41.60
2019-05-12T09:53:14.483Z,42.20
2019-05-12T09:55:44.013Z,41.70
2019-05-12T09:58:15.796Z,42.00
2019-05-12T10:00:43.562Z,42.40
2019-05-12T10:03:13.885Z,41.50
2019-05-12T10:05:44.242Z,41.30
2019-05-12T10:08:13.854Z,41.70
2019-05-12T10:10:46.789Z,41.90
2019-05-12T10:13:14.084Z,41.20
2019-05-12T10:15:43.154Z,41.60
2019-05-12T10:18:12.063Z,41.20
2019-05-12T10:20:44.128Z,39.30
2019-05-12T10:23:18.046Z,38.60
2019-05-12T10:25:44.831Z,39.00
2019-05-12T10:28:16.038Z,38.10
2019-05-12T10:30:47.060Z,38.50
2019-05-12T10:33:16.035Z,38.80
2019-05-12T10:35:44.981Z,40.00
2019-05-12T10:38:13.945Z,37.50
2019-05-12T10:40:44.458Z,37.70
2019-05-12T10:43:13.744Z,37.20
2019-05-12T10:45:44.184Z,36.00
2019-05-12T10:48:14.913Z,36.60
2019-05-12T10:50:44.289Z,35.70
2019-05-12T10:53:15.787Z,36.10
2019-05-12T10:55:44.173Z,34.90
2019-05-12T10:58:14.519Z,34.50
2019-05-12T11:00:44.333Z,35.30
2019-05-12T11:03:15.442Z,34.80
2019-05-12T11:05:44.511Z,34.40
2019-05-12T11:08:17.278Z,33.80
2019-05-12T11:10:50.411Z,32.90
2019-05-12T11:13:18.141Z,32.10
2019-05-12T11:15:49.571Z,33.30
2019-05-12T11:18:20.550Z,31.00
2019-05-12T11:20:49.171Z,29.70
2019-05-12T11:23:17.809Z,29.60
2019-05-12T11:25:46.254Z,29.60
2019-05-12T11:28:14.725Z,29.80
2019-05-12T11:30:43.734Z,30.40
2019-05-12T11:33:12.573Z,28.40
2019-05-12T11:35:43.488Z,29.20
2019-05-12T11:38:13.450Z,28.10
2019-05-12T11:40:43.748Z,27.80
2019-05-12T11:43:14.309Z,28.00
2019-05-12T11:45:44.281Z,27.60
2019-05-12T11:48:14.406Z,28.00
2019-05-12T11:50:51.043Z,29.00
2019-05-12T11:53:16.152Z,29.30
2019-05-12T11:55:44.673Z,29.90
2019-05-12T11:58:13.706Z,30.00
2019-05-12T12:00:45.686Z,30.30
2019-05-12T12:03:17.863Z,31.70
2019-05-12T12:05:44.810Z,31.70
2019-05-12T12:08:14.436Z,31.30
2019-05-12T12:10:43.290Z,31.60
2019-05-12T12:13:14.061Z,30.10
2019-05-12T12:15:42.743Z,30.20
2019-05-12T12:18:14.980Z,30.70
2019-05-12T12:20:44.163Z,30.70
2019-05-12T12:23:14.087Z,30.40
2019-05-12T12:25:42.956Z,31.20
2019-05-12T12:28:13.883Z,31.00
2019-05-12T12:30:47.358Z,31.70
2019-05-12T12:33:14.352Z,32.00
2019-05-12T12:35:44.498Z,31.50
2019-05-12T12:38:14.209Z,31.20
2019-05-12T12:40:44.144Z,31.40
2019-05-12T12:43:13.760Z,31.60
2019-05-12T12:45:50.930Z,31.80
2019-05-12T12:48:25.500Z,30.20
2019-05-12T12:50:53.862Z,30.00
2019-05-12T12:53:23.788Z,29.40
2019-05-12T12:55:53.766Z,29.30
2019-05-12T12:58:26.885Z,28.30
2019-05-12T13:00:56.741Z,29.40
2019-05-12T13:03:29.474Z,29.50
2019-05-12T13:05:55.336Z,30.30
2019-05-12T13:08:24.694Z,30.00
2019-05-12T13:10:54.233Z,29.80
2019-05-12T13:13:24.581Z,29.50
2019-05-12T13:15:53.699Z,29.10
2019-05-12T13:18:30.365Z,29.00
2019-05-12T13:20:54.390Z,28.90
2019-05-12T13:23:36.753Z,29.70
2019-05-12T13:25:54.923Z,29.60
2019-05-12T13:28:25.930Z,29.70
2019-05-12T13:31:07.336Z,29.50
2019-05-12T13:33:24.600Z,29.40
2019-05-12T13:35:55.616Z,30.40
2019-05-12T13:38:24.022Z,30.60
2019-05-12T13:40:54.062Z,30.80
2019-05-12T13:43:23.886Z,30.40
2019-05-12T13:45:53.483Z,31.20
2019-05-12T13:48:23.977Z,31.50
2019-05-12T13:51:07.690Z,31.30
2019-05-12T13:53:25.595Z,31.80
2019-05-12T13:55:54.508Z,31.90
2019-05-12T13:58:28.328Z,31.70
2019-05-12T14:01:10.469Z,31.70
2019-05-12T14:03:28.151Z,31.90
2019-05-12T14:05:57.551Z,31.90
2019-05-12T14:08:26.206Z,32.60
2019-05-12T14:10:59.502Z,32.30
2019-05-12T14:13:25.392Z,32.80
2019-05-12T14:15:54.076Z,32.70
2019-05-12T14:18:22.674Z,32.80
2019-05-12T14:20:58.485Z,33.00
2019-05-12T14:23:23.973Z,33.40
2019-05-12T14:25:54.296Z,38.00
2019-05-12T14:28:23.646Z,44.10
2019-05-12T14:30:54.351Z,46.80
2019-05-12T14:33:24.570Z,50.30
2019-05-12T14:35:54.419Z,51.90
2019-05-12T14:38:27.468Z,53.90
2019-05-12T14:40:53.803Z,56.10
2019-05-12T14:43:24.120Z,57.70
2019-05-12T14:45:54.130Z,60.20
2019-05-12T14:48:24.462Z,61.60
2019-05-12T14:50:53.493Z,64.10
2019-05-12T14:53:24.085Z,66.80
2019-05-12T14:55:53.714Z,69.20
2019-05-12T14:58:23.769Z,71.60
2019-05-12T15:00:56.158Z,71.00
2019-05-12T15:03:24.136Z,71.30
2019-05-12T15:05:54.492Z,71.50
2019-05-12T15:08:35.668Z,72.10
2019-05-12T15:10:53.803Z,72.60
2019-05-12T15:13:24.015Z,72.80
2019-05-12T15:15:58.126Z,74.10
2019-05-12T15:18:23.167Z,74.90
2019-05-12T15:20:54.308Z,75.60
2019-05-12T15:23:31.917Z,75.80
2019-05-12T15:25:53.966Z,76.20
2019-05-12T15:28:23.621Z,75.20
2019-05-12T15:30:54.194Z,73.60
2019-05-12T15:33:24.352Z,72.30
2019-05-12T15:35:54.688Z,71.70
2019-05-12T15:38:24.652Z,72.00
2019-05-12T15:40:53.804Z,71.60
2019-05-12T15:43:24.343Z,71.60
2019-05-12T15:45:55.269Z,71.80
2019-05-12T15:48:25.927Z,72.90
2019-05-12T15:50:54.148Z,73.00
2019-05-12T15:53:27.078Z,72.70
2019-05-12T15:55:56.076Z,72.30
2019-05-12T15:58:24.946Z,71.80
2019-05-12T16:00:54.473Z,71.40
2019-05-12T16:03:26.336Z,71.00
2019-05-12T16:05:54.379Z,70.90
2019-05-12T16:08:24.501Z,71.00
2019-05-12T16:10:53.520Z,70.50
2019-05-12T16:13:24.460Z,71.20
2019-05-12T16:15:56.031Z,71.50
2019-05-12T16:18:26.653Z,71.80
2019-05-12T16:20:59.091Z,71.50
2019-05-12T16:23:29.986Z,72.30
2019-05-12T16:26:01.341Z,72.60
2019-05-12T16:28:27.255Z,72.50
2019-05-12T16:30:58.940Z,73.40
2019-05-12T16:33:26.535Z,73.80
2019-05-12T16:35:59.977Z,73.20
2019-05-12T16:38:25.595Z,73.20
2019-05-12T16:40:54.472Z,73.30
2019-05-12T16:43:23.919Z,73.10
2019-05-12T16:48:33.339Z,73.20
2019-05-12T16:51:07.266Z,73.00
2019-05-12T16:53:40.790Z,73.00
2019-05-12T16:56:09.262Z,72.90
2019-05-12T16:58:38.251Z,72.10
2019-05-12T17:01:06.634Z,71.60
2019-05-12T17:03:35.299Z,72.30
2019-05-12T17:06:04.531Z,71.80
2019-05-12T17:08:34.472Z,72.40
2019-05-12T17:11:22.995Z,72.60
2019-05-12T17:13:34.161Z,73.10
2019-05-12T17:16:04.340Z,74.30
2019-05-12T17:18:33.928Z,75.80
2019-05-12T17:21:04.240Z,76.80
2019-05-12T17:23:33.409Z,77.90
2019-05-12T17:26:03.815Z,78.90
2019-05-12T17:28:34.321Z,79.80
2019-05-12T17:31:03.814Z,81.10
2019-05-12T17:33:33.917Z,82.10
2019-05-12T17:36:11.477Z,82.20
2019-05-12T17:38:34.591Z,82.10
2019-05-12T17:41:03.834Z,82.40
2019-05-12T17:43:33.843Z,81.80
2019-05-12T17:46:04.423Z,82.60
2019-05-12T17:48:37.430Z,82.00
2019-05-12T17:51:05.565Z,82.70
2019-05-12T17:53:36.032Z,82.80
2019-05-12T17:56:06.927Z,83.10
2019-05-12T17:58:42.062Z,82.70
2019-05-12T18:01:06.126Z,82.30
2019-05-12T18:03:39.276Z,80.60
2019-05-12T18:06:05.391Z,81.10
2019-05-12T18:08:38.139Z,82.10
2019-05-12T18:11:04.286Z,82.40
2019-05-12T18:13:34.418Z,82.90
2019-05-12T18:16:05.891Z,82.90
2019-05-12T18:18:38.096Z,81.90
2019-05-12T18:21:06.068Z,81.60
2019-05-12T18:23:34.913Z,80.70
2019-05-12T18:26:11.484Z,81.00
2019-05-12T18:28:36.154Z,80.90
2019-05-12T18:31:04.831Z,80.50
2019-05-12T18:33:37.158Z,80.90
2019-05-12T18:36:04.862Z,80.70
2019-05-12T18:38:35.238Z,81.10
2019-05-12T18:41:03.875Z,81.40
2019-05-12T18:43:34.477Z,81.50
2019-05-12T18:46:08.748Z,81.60
2019-05-12T18:48:35.824Z,81.50
2019-05-12T18:51:11.732Z,80.70
2019-05-12T18:53:36.264Z,80.90
2019-05-12T18:56:05.198Z,81.20
2019-05-12T18:58:35.784Z,81.00
2019-05-12T19:01:05.671Z,80.90
2019-05-12T19:03:47.133Z,81.30
2019-05-12T19:06:05.064Z,81.40
2019-05-12T19:08:33.610Z,81.00
2019-05-12T19:11:17.813Z,81.10
2019-05-12T19:13:33.791Z,81.20
2019-05-12T19:16:04.527Z,81.10
2019-05-12T19:18:36.994Z,80.90
2019-05-12T19:21:04.885Z,81.20
2019-05-12T19:23:37.522Z,81.10
2019-05-12T19:26:05.114Z,80.80
2019-05-12T19:28:34.261Z,80.60
2019-05-12T19:31:06.216Z,80.40
2019-05-12T19:33:34.862Z,80.10
2019-05-12T19:36:07.209Z,80.50
2019-05-12T19:38:35.644Z,80.10
2019-05-12T19:41:04.782Z,79.60
2019-05-12T19:43:34.065Z,79.70
2019-05-12T19:46:03.717Z,79.20
2019-05-12T19:48:35.123Z,79.50
2019-05-12T19:51:19.964Z,80.00
2019-05-12T19:53:35.799Z,80.40
2019-05-12T19:56:05.692Z,80.50
2019-05-12T19:58:34.376Z,80.60
2019-05-12T20:01:04.887Z,80.00
2019-05-12T20:03:33.577Z,79.70
2019-05-12T20:06:02.579Z,79.70
2019-05-12T20:08:31.566Z,79.40
2019-05-12T20:11:00.067Z,79.30
2019-05-12T20:13:29.700Z,79.80
2019-05-12T20:15:59.574Z,80.00
2019-05-12T20:18:28.484Z,79.90
2019-05-12T20:20:57.277Z,80.30
2019-05-12T20:23:25.870Z,80.60
2019-05-12T20:25:54.235Z,80.60
2019-05-12T20:28:24.293Z,80.80
2019-05-12T20:31:00.959Z,81.30
2019-05-12T20:33:24.196Z,81.40
2019-05-12T20:35:54.726Z,81.40
2019-05-12T20:38:25.531Z,81.40
2019-05-12T20:40:55.283Z,81.40
2019-05-12T20:43:32.422Z,81.30
2019-05-12T20:45:54.925Z,81.70
2019-05-12T20:48:26.561Z,81.30
2019-05-12T20:50:53.862Z,81.20
2019-05-12T20:53:31.555Z,81.00
2019-05-12T20:55:54.829Z,81.20
2019-05-12T20:58:26.591Z,81.20
2019-05-12T21:00:54.243Z,81.70
2019-05-12T21:03:24.603Z,81.60
2019-05-12T21:05:59.755Z,81.50
2019-05-12T21:08:23.718Z,81.40
2019-05-12T21:10:54.186Z,81.70
2019-05-12T21:13:29.101Z,81.70
2019-05-12T21:15:54.190Z,81.10
2019-05-12T21:18:23.754Z,81.30
2019-05-12T21:20:54.675Z,81.80
2019-05-12T21:23:24.130Z,81.70
2019-05-12T21:25:57.888Z,82.20
2019-05-12T21:28:23.924Z,82.50
2019-05-12T21:30:55.460Z,82.50
2019-05-12T21:33:24.130Z,82.70
2019-05-12T21:35:54.660Z,82.20
2019-05-12T21:38:25.162Z,81.50
2019-05-12T21:40:54.129Z,82.70
2019-05-12T21:43:24.085Z,82.30
2019-05-12T21:45:53.709Z,82.30
2019-05-12T21:48:26.520Z,81.80
2019-05-12T21:50:55.608Z,82.20
2019-05-12T21:53:25.450Z,82.50
2019-05-12T21:55:57.700Z,82.70
2019-05-12T21:58:24.755Z,82.30
2019-05-12T22:01:04.143Z,82.20
2019-05-12T22:03:33.481Z,82.70
2019-05-12T22:06:15.557Z,82.90
2019-05-12T22:08:33.791Z,82.90
2019-05-12T22:11:09.646Z,83.30
2019-05-12T22:13:33.157Z,84.10
2019-05-12T22:16:03.827Z,83.70
2019-05-12T22:18:33.380Z,84.40
2019-05-12T22:21:06.553Z,85.00
2019-05-12T22:23:33.721Z,85.20
2019-05-12T22:26:04.289Z,85.90
2019-05-12T22:28:34.164Z,86.00
2019-05-12T22:31:03.393Z,85.60
2019-05-12T22:33:33.409Z,85.80
2019-05-12T22:36:13.888Z,85.30
2019-05-12T22:38:34.189Z,85.40
2019-05-12T22:41:04.393Z,85.80
2019-05-12T22:43:40.983Z,85.80
2019-05-12T22:46:04.557Z,86.00
2019-05-12T22:48:37.288Z,85.50
2019-05-12T22:51:06.173Z,85.60
2019-05-12T22:53:36.143Z,85.70
2019-05-12T22:56:12.107Z,86.40
2019-05-12T22:58:34.919Z,86.20
2019-05-12T23:01:05.264Z,86.10
2019-05-12T23:03:36.114Z,86.20
2019-05-12T23:06:20.273Z,86.90
2019-05-12T23:08:38.722Z,87.10
2019-05-12T23:11:05.532Z,87.20
2019-05-12T23:13:40.904Z,86.30
2019-05-12T23:16:04.739Z,86.30
2019-05-12T23:18:33.850Z,86.40
2019-05-12T23:21:06.397Z,86.50
2019-05-12T23:23:33.877Z,86.50
2019-05-12T23:26:02.583Z,86.10
2019-05-12T23:28:30.897Z,86.00
2019-05-12T23:30:59.224Z,85.80
2019-05-12T23:33:31.767Z,86.40
2019-05-12T23:35:58.236Z,86.60
2019-05-12T23:38:27.567Z,86.90
2019-05-12T23:40:55.907Z,86.70
2019-05-12T23:43:24.895Z,86.80
2019-05-12T23:45:53.895Z,86.90
2019-05-12T23:48:22.557Z,86.90
2019-05-12T23:50:50.855Z,86.90
2019-05-12T23:53:19.406Z,86.20
2019-05-12T23:55:49.228Z,86.90
2019-05-12T23:58:17.913Z,86.70
